• Join FlightAware (Why Join?)
  • Login
  • US Flag 
12:44PM EDT


 

Airport Tracker/Info


-or-


 

Live Flight TrackerFlight Track Log ✈ N229CN ✈ 24-Apr-2013 ✈ KRIC - KHBZ

Flight Track Log - Related Links

Times and Time Zones

All times are in EDT time to prevent confusion due to time zone crossing. See the N229CN flight status page for this flight to view local times or setup timezone preferences in your user account.

Time Position Orientation Groundspeed Altitude Reporting Facility
EDT Latitude Longitude Course Direction KTS MPH feet Rate Location/Type
03:24PM 37.4667 -77.3167 227° Southwest 195 224 2,900  Level Potomac TRACON
03:25PM 37.4303 -77.3650 227° Southwest 197 227 6,600 2,820 Climbing Washington Center
03:26PM 37.4228 -77.4328 262° West 192 221 8,900 1,920 Climbing Washington Center
03:27PM 37.4133 -77.5136 262° West 217 250 10,500 2,160 Climbing Washington Center
03:28PM 37.4036 -77.5969 262° West 232 267 13,300 1,980 Climbing Washington Center
03:29PM 37.3914 -77.6933 261° West 260 299 14,500 1,800 Climbing Washington Center
03:30PM 37.3814 -77.7925 263° West 281 323 16,900 2,100 Climbing Washington Center
03:31PM 37.3692 -77.8914 261° West 286 329 18,800 1,500 Climbing Washington Center
03:32PM 37.3567 -77.9931 261° West 291 335 20,000 840 Climbing Washington Center
03:33PM 37.3314 -78.1019 254° West 306 352 20,500 960 Climbing Washington Center
03:34PM 37.3150 -78.1953 258° West 311 358 22,000 1,500 Climbing Washington Center
03:35PM 37.2917 -78.2989 254° West 311 358 23,500 1,560 Climbing Washington Center
03:36PM 37.2828 -78.4161 265° West 318 366 25,200 2,100 Climbing Washington Center
03:37PM 37.2783 -78.5153 267° West 304 350 27,800 2,100 Climbing Washington Center
03:38PM 37.2675 -78.6114 262° West 293 337 29,400 1,560 Climbing Washington Center
03:39PM 37.2589 -78.7075 264° West 287 330 31,000 1,680 Climbing Washington Center
03:40PM 37.2483 -78.7933 261° West 287 330 32,800 1,800 Climbing Washington Center
03:41PM 37.2375 -78.8842 262° West 282 325 34,700 1,800 Climbing Washington Center
03:42PM 37.2264 -78.9775 262° West 272 313 36,500 1,860 Climbing Washington Center
03:43PM 37.2178 -79.0658 263° West 272 313 38,500 1,920 Climbing Washington Center
03:44PM 37.2089 -79.1514 263° West 242 278 40,400 1,200 Climbing Washington Center
03:45PM 37.1981 -79.2317 260° West 236 272 41,000 420 Climbing Washington Center
03:46PM 37.1869 -79.3225 261° West 248 285 41,300 420 Climbing Washington Center
03:47PM 37.1778 -79.4158 263° West 262 302 41,900 660 Climbing Washington Center
03:48PM 37.1683 -79.5144 263° West 275 316 42,700 540 Climbing Washington Center
03:49PM 37.1569 -79.6053 261° West 290 334 43,000 120 Climbing Washington Center
03:50PM 37.1453 -79.7086 262° West 295 339 43,000  Level Washington Center
03:51PM 37.1331 -79.8200 262° West 313 360 43,000  Level Washington Center
03:53PM 37.1061 -80.0233 261° West 339 390 43,000  Level Atlanta Center
03:54PM 37.0931 -80.1383 262° West 339 390 43,000  Level Atlanta Center
03:55PM 37.0803 -80.2561 262° West 339 390 43,000  Level Atlanta Center
03:56PM 37.0656 -80.3894 262° West 350 403 43,000  Level Atlanta Center
03:57PM 37.0503 -80.5122 261° West 355 409 43,000  Level Atlanta Center
03:58PM 37.0347 -80.6300 261° West 355 409 43,000  Level Atlanta Center
03:59PM 37.0194 -80.7503 261° West 355 409 43,000  Level Atlanta Center
04:00PM 37.0056 -80.8575 261° West 355 409 43,000  Level Atlanta Center
04:01PM 36.9917 -80.9750 262° West 349 402 43,000  Level Atlanta Center
04:02PM 36.9778 -81.0872 261° West 344 396 43,000  Level Atlanta Center
04:03PM 36.9617 -81.1994 260° West 338 389 43,000  Level Atlanta Center
04:04PM 36.9478 -81.3222 262° West 338 389 43,000  Level Atlanta Center
04:05PM 36.9336 -81.4317 261° West 333 383 43,000  Level Atlanta Center
04:06PM 36.9192 -81.5464 261° West 333 383 43,000  Level Atlanta Center
04:07PM 36.9108 -81.6428 264° West 333 383 43,000  Level Atlanta Center
04:07PM 36.9039 -81.6994 261° West 325 374 43,000  Level Indianapolis Center
04:08PM 36.8881 -81.8111 260° West 326 375 43,000  Level Indianapolis Center
04:09PM 36.8719 -81.9381 261° West 319 367 43,000  Level Indianapolis Center
04:10PM 36.8667 -81.9761 260° West 328 377 43,000  Level Atlanta Center
04:11PM 36.8519 -82.0881 261° West 328 377 43,000  Level Atlanta Center
04:12PM 36.8369 -82.1947 260° West 328 377 43,000  Level Atlanta Center
04:13PM 36.8217 -82.3039 260° West 328 377 43,000  Level Atlanta Center
04:14PM 36.8067 -82.4158 261° West 328 377 43,000  Level Atlanta Center
04:15PM 36.7892 -82.5275 259° West 328 377 43,000  Level Atlanta Center
04:16PM 36.7739 -82.6367 260° West 333 383 43,000  Level Atlanta Center
04:16PM 36.7619 -82.7311 261° West 322 371 43,000  Level Indianapolis Center
04:17PM 36.7453 -82.8403 259° West 317 365 43,000  Level Indianapolis Center
04:18PM 36.7314 -82.9494 261° West 315 362 43,000  Level Indianapolis Center
04:20PM 36.7161 -83.0575 260° West 314 361 43,000  Level Indianapolis Center
04:21PM 36.7006 -83.1642 260° West 312 359 43,000  Level Indianapolis Center
04:22PM 36.6831 -83.2886 260° West 312 359 43,000  Level Indianapolis Center
04:23PM 36.6672 -83.3953 260° West 314 361 43,000  Level Indianapolis Center
04:24PM 36.6514 -83.5033 260° West 316 364 43,000  Level Indianapolis Center
04:25PM 36.6350 -83.6117 259° West 318 366 43,000  Level Indianapolis Center
04:26PM 36.6192 -83.7214 260° West 322 371 43,000  Level Indianapolis Center
04:27PM 36.6006 -83.8478 260° West 320 368 43,000  Level Indianapolis Center
04:28PM 36.5836 -83.9575 259° West 323 372 43,000  Level Indianapolis Center
04:29PM 36.5681 -84.0672 260° West 322 371 43,000  Level Indianapolis Center
04:30PM 36.5514 -84.1736 259° West 317 365 43,000  Level Indianapolis Center
04:31PM 36.5344 -84.2817 259° West 317 365 43,000  Level Indianapolis Center
04:32PM 36.5150 -84.4081 259° West 317 365 43,000  Level Indianapolis Center
04:33PM 36.4997 -84.5131 260° West 322 371 43,000  Level Indianapolis Center
04:34PM 36.5028 -84.6214 272° West 315 362 43,000  Level Indianapolis Center
04:35PM 36.5092 -84.7289 274° West 314 361 43,000  Level Indianapolis Center
04:36PM 36.5164 -84.8564 274° West 310 357 43,000  Level Indianapolis Center
04:37PM 36.4978 -84.9622 258° West 314 361 43,000  Level Indianapolis Center
04:38PM 36.4775 -85.0681 257° West 315 362 43,000  Level Indianapolis Center
04:39PM 36.4556 -85.1739 256° West 318 366 43,000  Level Indianapolis Center
04:40PM 36.4333 -85.2822 256° West 324 373 43,000  Level Indianapolis Center
04:41PM 36.4119 -85.3908 256° West 324 373 43,000  Level Indianapolis Center
04:42PM 36.3844 -85.5189 255° West 321 369 43,000  Level Indianapolis Center
04:43PM 36.3619 -85.6247 255° West 319 367 43,000  Level Indianapolis Center
04:44PM 36.3403 -85.7294 256° West 315 362 43,000  Level Indianapolis Center
04:45PM 36.3178 -85.8342 255° West 326 375 43,000  Level Memphis Center
04:46PM 36.2983 -85.9253 255° West 320 368 43,000  Level Memphis Center
04:47PM 36.2750 -86.0322 255° West 325 374 43,000  Level Memphis Center
04:48PM 36.2536 -86.1389 256° West 325 374 43,000  Level Memphis Center
04:49PM 36.2319 -86.2428 256° West 325 374 43,000  Level Memphis Center
04:50PM 36.2083 -86.3442 254° West 320 368 43,000  Level Memphis Center
04:51PM 36.1847 -86.4586 256° West 320 368 43,000  Level Memphis Center
04:52PM 36.1608 -86.5625 254° West 325 374 43,000  Level Memphis Center
04:53PM 36.1369 -86.6664 254° West 325 374 43,000  Level Memphis Center
04:54PM 36.1233 -86.7750 261° West 320 368 43,000  Level Memphis Center
04:55PM 36.1139 -86.8808 264° West 315 362 43,000  Level Memphis Center
04:56PM 36.1042 -86.9789 263° West 315 362 43,000  Level Memphis Center
04:57PM 36.0967 -87.0844 265° West 314 361 43,000  Level Memphis Center
04:58PM 36.0869 -87.1903 264° West 314 361 43,000  Level Memphis Center
04:59PM 36.0769 -87.2958 263° West 314 361 43,000  Level Memphis Center
05:00PM 36.0669 -87.3989 263° West 314 361 43,000  Level Memphis Center
05:01PM 36.0550 -87.5122 263° West 314 361 43,000  Level Memphis Center
05:02PM 36.0450 -87.6206 264° West 314 361 43,000  Level Memphis Center
05:03PM 36.0325 -87.7261 262° West 314 361 43,000  Level Memphis Center
05:04PM 36.0244 -87.8289 264° West 314 361 43,000  Level Memphis Center
05:05PM 36.0119 -87.9319 262° West 314 361 43,000  Level Memphis Center
05:06PM 36.0033 -88.0350 264° West 314 361 43,000  Level Memphis Center
05:07PM 35.9925 -88.1303 262° West 314 361 43,000  Level Memphis Center
05:08PM 35.9819 -88.2408 263° West 309 356 43,000  Level Memphis Center
05:09PM 35.9692 -88.3411 261° West 309 356 43,000  Level Memphis Center
05:10PM 35.9561 -88.4414 261° West 309 356 43,000  Level Memphis Center
05:11PM 35.9453 -88.5467 263° West 309 356 43,000  Level Memphis Center
05:12PM 35.9342 -88.6497 262° West 309 356 43,000  Level Memphis Center
05:13PM 35.9231 -88.7497 262° West 309 356 43,000  Level Memphis Center
05:14PM 35.9097 -88.8550 261° West 309 356 43,000  Level Memphis Center
05:15PM 35.8983 -88.9606 262° West 314 361 43,000  Level Memphis Center
05:16PM 35.8850 -89.0606 261° West 309 356 43,000  Level Memphis Center
05:17PM 35.8733 -89.1633 262° West 309 356 43,000  Level Memphis Center
05:18PM 35.8639 -89.2531 263° West 309 356 43,000  Level Memphis Center
05:19PM 35.8522 -89.3556 262° West 309 356 43,000  Level Memphis Center
05:20PM 35.8383 -89.4556 260° West 309 356 43,000  Level Memphis Center
05:21PM 35.8264 -89.5531 261° West 309 356 43,000  Level Memphis Center
05:22PM 35.8147 -89.6531 262° West 304 350 43,000  Level Memphis Center
05:23PM 35.8025 -89.7531 261° West 298 343 43,000 -600 Level Memphis Center
05:24PM 35.7906 -89.8503 261° West 293 337 41,800 -1,500 Descending Memphis Center
05:25PM 35.7806 -89.9400 262° West 293 337 40,100 -1,680 Descending Memphis Center
05:26PM 35.7703 -90.0294 262° West 281 323 38,500 -1,620 Descending Memphis Center
05:27PM 35.7558 -90.1319 260° West 279 321 36,900 -1,620 Descending Memphis Center
05:28PM 35.7456 -90.2367 263° West 304 350 35,300 -1,500 Descending Memphis Center
05:29PM 35.7311 -90.3417 260° West 310 357 34,000 -1,800 Descending Memphis Center
05:30PM 35.7186 -90.4439 261° West 310 357 31,800 -1,920 Descending Memphis Center
05:31PM 35.7039 -90.5486 260° West 315 362 30,200 -1,800 Descending Memphis Center
05:32PM 35.6933 -90.6561 263° West 315 362 28,300 -1,980 Descending Memphis Center
05:33PM 35.6847 -90.7558 264° West 308 354 26,300 -2,040 Descending Memphis Center
05:34PM 35.6717 -90.8553 261° West 302 348 24,300 -2,040 Descending Memphis Center
05:35PM 35.6567 -90.9497 259° West 289 333 22,300 -2,100 Descending Memphis Center
05:36PM 35.6439 -91.0442 261° West 289 333 20,200 -2,100 Descending Memphis Center
05:37PM 35.5933 -91.1203 231° Southwest 279 321 18,200 -1,860 Descending Memphis Center
05:38PM 35.5322 -91.1989 226° Southwest 284 327 16,500 -1,860 Descending Memphis Center
05:39PM 35.5150 -91.2856 256° West 261 300 14,500 -2,100 Descending Memphis Center
05:40PM 35.5144 -91.3747 270° West 261 300 12,400 -2,040 Descending Memphis Center
05:41PM 35.5136 -91.4692 269° West 266 306 10,400 -1,740 Descending Memphis Center
05:42PM 35.5128 -91.5533 269° West 266 306 9,000 -1,500 Descending Memphis Center
05:43PM 35.5142 -91.6297 271° West 250 288 7,500 -1,500 Descending Memphis Center
05:44PM 35.5133 -91.7114 269° West 243 280 6,000 -1,500 Descending Memphis Center